Terminal Aerodrome Forecast
Issued by NWS Nashville, TN

Home | Current Version | Previous Version | Text Only | Print | Product List | Glossary On
Versions: 1 2 3 4 5 6 7 8 9 10 11 12 13 14 15 16 17 18
644
FTUS44 KOHX 241724
TAFCSV
TAF
KCSV 241724Z 2418/2518 17011G20KT P6SM BKN100
     FM250600 17011G17KT P6SM BKN070 WS020/18040KT
     FM251300 17012G20KT P6SM BKN080=

USA.gov is the U.S. government's official web portal to all federal, state and local government web resources and services.